Time;durP1;ratioP1;P1;durP2;ratioP2;P2;SDS_P1;SDS_P2;PMS_P1;PMS_P2;Temp;Humidity;BMP_temperature;BMP_pressure;BME280_temperature;BME280_humidity;BME280_pressure;Samples;Min_cycle;Max_cycle;Signal;HPM_P1;HPM_P2
2022/06/29 00:00:02;;;;;;;12.43;3.38;;;;;;;17.55;81.57;92494.66;5052358;28;20410;-78
2022/06/29 00:02:34;;;;;;;13.25;3.63;;;;;;;17.54;81.67;92501.06;5039205;28;20048;-78
2022/06/29 00:04:59;;;;;;;12.13;3.80;;;;;;;17.54;81.95;92498.41;5037062;28;20503;-78
2022/06/29 00:07:25;;;;;;;13.55;3.30;;;;;;;17.49;82.09;92488.03;5033288;28;20049;-77
2022/06/29 00:09:51;;;;;;;10.13;3.15;;;;;;;17.47;82.92;92496.31;5035454;28;20044;-77
2022/06/29 00:12:16;;;;;;;16.02;3.47;;;;;;;17.46;82.77;92494.75;5032530;28;20117;-77
2022/06/29 00:14:42;;;;;;;13.45;3.55;;;;;;;17.44;82.79;92496.19;5034096;28;20037;-77
2022/06/29 00:17:12;;;;;;;9.27;3.65;;;;;;;17.42;82.90;92488.56;5032288;28;20033;-77
2022/06/29 00:19:38;;;;;;;18.85;3.55;;;;;;;17.40;83.49;92484.69;5031709;28;20033;-77
2022/06/29 00:22:05;;;;;;;12.65;3.85;;;;;;;17.35;83.57;92485.69;5035479;28;20549;-77
2022/06/29 00:24:32;;;;;;;13.27;3.25;;;;;;;17.33;83.62;92479.19;5032234;28;20029;-78
2022/06/29 00:26:58;;;;;;;13.20;3.85;;;;;;;17.31;83.71;92474.19;5049369;28;20041;-77
2022/06/29 00:29:24;;;;;;;13.38;3.75;;;;;;;17.27;84.48;92470.69;5030832;28;20033;-77
2022/06/29 00:31:50;;;;;;;9.35;3.28;;;;;;;17.22;85.06;92476.94;5032387;28;20045;-77
2022/06/29 00:34:15;;;;;;;9.30;3.40;;;;;;;17.19;85.26;92469.66;5032374;28;20088;-78
2022/06/29 00:36:42;;;;;;;10.75;3.60;;;;;;;17.14;85.83;92467.22;5032024;28;20549;-78
2022/06/29 00:39:08;;;;;;;9.30;3.38;;;;;;;17.10;86.81;92473.50;5031874;28;20029;-78
2022/06/29 00:41:38;;;;;;;13.85;4.07;;;;;;;17.04;86.72;92479.00;5039326;28;20033;-77
2022/06/29 00:44:04;;;;;;;13.02;3.53;;;;;;;16.99;86.85;92468.63;5049180;28;20035;-78
2022/06/29 00:46:30;;;;;;;10.32;3.65;;;;;;;16.96;86.67;92460.56;5046200;28;20061;-77
2022/06/29 00:48:55;;;;;;;12.95;4.40;;;;;;;16.93;86.74;92455.91;5066246;28;20037;-77
2022/06/29 00:51:22;;;;;;;16.27;4.35;;;;;;;16.90;87.25;92459.22;5051807;28;20052;-78
2022/06/29 00:53:50;;;;;;;13.35;3.80;;;;;;;16.89;87.14;92461.09;5034206;28;20044;-78
2022/06/29 00:56:17;;;;;;;8.57;3.53;;;;;;;16.89;87.34;92457.66;5032026;28;20103;-77
2022/06/29 00:58:45;;;;;;;9.45;3.80;;;;;;;16.89;87.58;92455.03;5035710;28;20037;-78
2022/06/29 01:01:13;;;;;;;11.07;3.50;;;;;;;17.01;87.38;92468.28;5041536;28;20437;-77
2022/06/29 01:03:39;;;;;;;17.40;4.03;;;;;;;16.97;87.06;92456.81;5050450;28;20052;-78
2022/06/29 01:06:05;;;;;;;11.40;3.85;;;;;;;16.90;87.55;92456.59;5040182;28;20032;-78
2022/06/29 01:08:30;;;;;;;11.77;3.60;;;;;;;16.83;87.80;92455.22;5033451;28;20037;-78
2022/06/29 01:10:56;;;;;;;13.32;3.55;;;;;;;16.81;87.89;92454.78;5032442;28;20554;-78
2022/06/29 01:13:21;;;;;;;15.48;4.00;;;;;;;16.79;87.99;92454.31;5033299;28;20111;-77
2022/06/29 01:15:47;;;;;;;21.10;4.85;;;;;;;16.73;89.23;92447.69;5046861;28;20454;-77
2022/06/29 01:18:13;;;;;;;9.52;3.75;;;;;;;16.74;88.64;92451.88;5018957;28;20305;-77
2022/06/29 01:20:38;;;;;;;12.30;3.65;;;;;;;16.71;88.39;92444.59;5053206;28;20042;-77
2022/06/29 01:23:04;;;;;;;11.05;3.88;;;;;;;16.68;88.28;92445.22;5042658;28;20032;-78
2022/06/29 01:25:29;;;;;;;12.68;3.90;;;;;;;16.67;88.49;92437.63;5052456;28;20040;-78
2022/06/29 01:27:55;;;;;;;10.95;3.75;;;;;;;16.67;88.78;92438.41;5042014;28;20095;-78
2022/06/29 01:30:21;;;;;;;10.18;3.80;;;;;;;16.64;88.80;92434.53;5035820;28;20040;-77
2022/06/29 01:32:46;;;;;;;11.98;3.88;;;;;;;16.63;89.11;92432.22;5039162;28;20028;-77
2022/06/29 01:35:16;;;;;;;16.25;4.10;;;;;;;16.60;89.29;92431.00;5050804;28;20086;-78
2022/06/29 01:37:42;;;;;;;15.60;4.10;;;;;;;16.59;89.32;92437.38;5024485;28;20137;-77
2022/06/29 01:40:09;;;;;;;15.25;4.05;;;;;;;16.57;89.26;92439.59;5034037;28;20171;-78
2022/06/29 01:42:35;;;;;;;10.57;3.55;;;;;;;16.57;89.45;92433.50;5033689;28;20040;-77
2022/06/29 01:45:01;;;;;;;22.50;4.38;;;;;;;16.57;89.67;92428.22;5050896;28;20402;-78
2022/06/29 01:47:27;;;;;;;11.57;3.88;;;;;;;16.55;89.35;92431.22;5054815;28;20033;-77
2022/06/29 01:49:52;;;;;;;12.90;3.75;;;;;;;16.56;89.25;92426.69;5055405;28;20025;-77
2022/06/29 01:52:18;;;;;;;18.98;4.05;;;;;;;16.56;89.48;92431.97;5034356;28;20127;-78
2022/06/29 01:54:44;;;;;;;14.38;4.70;;;;;;;16.53;89.97;92419.44;5036789;28;20038;-77
2022/06/29 01:57:09;;;;;;;15.15;3.80;;;;;;;16.51;90.09;92422.38;5035838;28;20511;-77
2022/06/29 01:59:35;;;;;;;11.70;3.90;;;;;;;16.52;89.80;92421.28;5036673;28;20111;-78
2022/06/29 02:02:00;;;;;;;13.77;4.03;;;;;;;16.52;90.16;92409.94;5040996;28;20052;-78
2022/06/29 02:04:26;;;;;;;11.35;3.80;;;;;;;16.51;90.46;92403.88;5052341;28;20028;-77
2022/06/29 02:06:52;;;;;;;12.60;3.95;;;;;;;16.54;90.25;92410.38;5033174;28;20037;-78
2022/06/29 02:09:17;;;;;;;17.35;5.60;;;;;;;16.52;90.35;92402.00;5037505;28;20051;-77
2022/06/29 02:11:43;;;;;;;17.10;4.28;;;;;;;16.48;90.42;92395.81;5036643;28;20037;-77
2022/06/29 02:14:10;;;;;;;13.40;4.85;;;;;;;16.47;90.44;92404.84;5050530;28;20040;-77
2022/06/29 02:16:35;;;;;;;14.88;4.40;;;;;;;16.42;90.57;92401.31;5051996;28;20598;-77
2022/06/29 02:19:01;;;;;;;15.88;4.30;;;;;;;16.38;90.56;92399.66;5050492;28;20120;-77
2022/06/29 02:21:26;;;;;;;9.35;3.58;;;;;;;16.33;90.57;92397.22;5036461;28;20445;-77
2022/06/29 02:23:52;;;;;;;13.60;4.22;;;;;;;16.29;89.87;92394.44;5039132;28;20041;-77
2022/06/29 02:26:18;;;;;;;11.63;3.80;;;;;;;16.26;90.13;92389.81;5042448;28;20025;-78
2022/06/29 02:28:43;;;;;;;8.45;4.05;;;;;;;16.24;89.95;92384.06;5034573;28;20030;-77
2022/06/29 02:36:37;;;;;;;10.55;3.75;;;;;;;16.08;90.19;92386.53;5050476;28;20044;-78
2022/06/29 02:39:02;;;;;;;13.25;3.90;;;;;;;16.03;90.41;92387.47;5043023;28;20036;-77
2022/06/29 02:41:28;;;;;;;14.38;3.67;;;;;;;15.99;90.38;92389.22;5031547;28;20033;-77
2022/06/29 02:43:54;;;;;;;11.68;3.70;;;;;;;15.98;89.32;92386.88;5048741;28;20479;-77
2022/06/29 02:46:19;;;;;;;10.70;3.58;;;;;;;15.95;89.11;92388.31;5031564;28;20041;-77
2022/06/29 02:48:45;;;;;;;15.30;3.70;;;;;;;15.91;89.09;92392.69;5058981;28;20041;-77
2022/06/29 02:51:11;;;;;;;14.27;3.67;;;;;;;15.87;88.93;92381.22;5053869;28;20037;-77
2022/06/29 02:53:37;;;;;;;12.02;3.97;;;;;;;15.83;88.93;92380.31;5045051;28;20113;-77
2022/06/29 02:56:03;;;;;;;11.93;3.47;;;;;;;15.82;89.14;92376.91;5048425;28;20068;-77
2022/06/29 02:58:28;;;;;;;15.45;4.00;;;;;;;15.77;88.89;92371.03;5048121;28;20049;-77
2022/06/29 03:00:54;;;;;;;14.35;3.65;;;;;;;15.78;88.41;92365.47;5050507;28;20029;-77
2022/06/29 03:03:19;;;;;;;16.33;4.00;;;;;;;15.81;88.52;92366.69;5026843;28;20040;-77
2022/06/29 03:05:45;;;;;;;9.75;3.47;;;;;;;15.82;88.52;92363.69;5049463;28;20039;-77
2022/06/29 03:08:11;;;;;;;11.98;3.78;;;;;;;15.82;88.43;92365.56;5039287;28;20029;-77
2022/06/29 03:10:36;;;;;;;20.13;3.75;;;;;;;15.80;89.13;92359.84;5052392;28;20091;-77
2022/06/29 03:13:02;;;;;;;11.15;3.50;;;;;;;15.76;89.33;92366.84;5045053;28;20132;-77
2022/06/29 03:15:28;;;;;;;11.32;3.42;;;;;;;15.73;89.34;92368.25;5050446;28;20025;-77
2022/06/29 03:17:54;;;;;;;13.82;4.00;;;;;;;15.65;89.26;92368.28;5053201;28;20567;-77
2022/06/29 03:20:20;;;;;;;15.57;3.67;;;;;;;15.61;89.35;92362.88;5052578;28;20124;-77
2022/06/29 03:22:46;;;;;;;11.35;4.18;;;;;;;15.58;88.91;92353.75;5051828;28;20399;-77
2022/06/29 03:25:15;;;;;;;18.20;3.90;;;;;;;15.59;88.48;92352.66;5061548;28;20033;-77
2022/06/29 03:27:42;;;;;;;14.85;3.42;;;;;;;15.59;88.52;92344.72;5053285;28;20389;-77
2022/06/29 03:30:08;;;;;;;14.30;3.45;;;;;;;15.62;88.70;92352.00;5053177;28;20017;-77
2022/06/29 03:32:34;;;;;;;16.95;3.95;;;;;;;15.59;89.04;92352.66;5042750;28;20029;-77
2022/06/29 03:35:00;;;;;;;12.15;3.63;;;;;;;15.56;89.22;92345.38;5030675;28;20466;-77
2022/06/29 03:37:25;;;;;;;14.98;3.40;;;;;;;15.54;88.93;92347.56;5048328;28;20026;-77
2022/06/29 03:39:51;;;;;;;18.05;3.53;;;;;;;15.54;88.96;92352.06;5034787;28;20144;-77
2022/06/29 03:42:16;;;;;;;14.50;4.10;;;;;;;15.52;89.15;92344.47;5033147;28;20380;-77
2022/06/29 03:44:42;;;;;;;13.07;3.28;;;;;;;15.53;88.83;92353.91;5037053;28;21924;-77
2022/06/29 03:47:07;;;;;;;12.98;3.53;;;;;;;15.52;88.79;92352.38;5032978;28;20036;-77
2022/06/29 03:49:35;;;;;;;13.48;3.33;;;;;;;15.52;88.20;92355.03;5032167;28;20056;-78
2022/06/29 03:52:01;;;;;;;12.00;3.63;;;;;;;15.51;88.19;92342.91;5045814;28;20047;-77
2022/06/29 03:54:27;;;;;;;19.45;3.67;;;;;;;15.53;88.00;92351.28;5053700;28;20068;-78
2022/06/29 03:56:53;;;;;;;16.50;3.65;;;;;;;15.52;87.84;92344.47;5051475;28;20138;-77
2022/06/29 03:59:18;;;;;;;16.70;3.90;;;;;;;15.51;87.38;92347.41;5052612;28;20029;-77
2022/06/29 04:01:46;;;;;;;12.15;3.40;;;;;;;15.51;87.37;92339.50;5059835;28;20041;-77
2022/06/29 04:04:12;;;;;;;14.85;3.20;;;;;;;15.52;87.15;92339.19;5057634;28;20390;-77
2022/06/29 04:06:38;;;;;;;16.35;3.50;;;;;;;15.55;87.15;92335.13;5042718;28;20048;-77
2022/06/29 04:09:04;;;;;;;11.18;3.40;;;;;;;15.56;87.30;92340.09;5048429;28;20493;-77
2022/06/29 04:14:17;;;;;;;16.73;4.18;;;;;;;15.58;87.39;92330.00;5034553;28;20103;-77
2022/06/29 04:16:43;;;;;;;10.93;3.22;;;;;;;15.59;87.81;92328.91;5034043;28;20033;-78
2022/06/29 04:19:08;;;;;;;15.43;3.78;;;;;;;15.64;88.62;92329.81;5030364;28;20098;-77
2022/06/29 04:21:34;;;;;;;10.18;3.38;;;;;;;15.65;87.96;92333.97;5048175;28;20037;-77
2022/06/29 04:24:00;;;;;;;15.93;3.90;;;;;;;15.67;87.70;92329.94;5048410;28;20033;-78
2022/06/29 04:26:25;;;;;;;14.93;3.67;;;;;;;15.69;87.75;92327.75;5031246;28;20140;-77
2022/06/29 04:28:51;;;;;;;14.57;3.65;;;;;;;15.73;87.73;92317.34;5030881;28;20040;-77
2022/06/29 04:31:16;;;;;;;12.40;3.28;;;;;;;15.77;88.48;92321.66;5036717;28;20036;-77
2022/06/29 04:33:42;;;;;;;9.98;3.42;;;;;;;15.80;88.50;92318.38;5022861;28;20037;-79
2022/06/29 04:36:08;;;;;;;14.10;3.75;;;;;;;15.85;88.65;92330.63;5046426;28;20037;-78
2022/06/29 04:38:33;;;;;;;12.10;3.83;;;;;;;15.91;88.52;92323.28;5033095;28;20377;-77
2022/06/29 04:40:59;;;;;;;11.30;3.30;;;;;;;15.95;88.14;92324.19;5031579;28;20029;-77
2022/06/29 04:43:27;;;;;;;9.93;3.40;;;;;;;15.98;88.44;92324.28;5052755;28;20033;-77
2022/06/29 04:48:38;;;;;;;16.90;3.58;;;;;;;16.09;87.71;92313.34;5033031;28;20499;-77
2022/06/29 04:51:03;;;;;;;15.23;3.65;;;;;;;16.15;87.65;92325.28;5030339;28;20090;-77
2022/06/29 04:53:29;;;;;;;13.40;3.20;;;;;;;16.22;87.18;92317.59;5042117;28;20112;-77
2022/06/29 04:55:55;;;;;;;10.82;3.40;;;;;;;16.31;86.58;92317.50;5031258;28;20423;-77
2022/06/29 04:58:20;;;;;;;13.00;3.90;;;;;;;16.37;86.74;92324.91;5036509;28;20048;-77
2022/06/29 05:00:46;;;;;;;13.50;3.60;;;;;;;16.44;86.73;92324.38;5040408;28;20091;-77
2022/06/29 05:03:12;;;;;;;15.38;3.60;;;;;;;16.51;86.38;92318.56;5032405;28;20504;-78
2022/06/29 05:05:37;;;;;;;12.43;3.53;;;;;;;16.58;86.14;92318.81;5034178;28;20033;-78
2022/06/29 05:08:03;;;;;;;10.65;3.08;;;;;;;16.66;85.86;92315.28;5034720;28;20542;-77
2022/06/29 05:10:30;;;;;;;12.32;3.50;;;;;;;16.77;84.82;92311.13;5032043;28;20047;-77
2022/06/29 05:12:55;;;;;;;11.68;3.30;;;;;;;16.90;84.30;92311.19;5051836;28;20088;-76
2022/06/29 05:15:21;;;;;;;13.40;3.60;;;;;;;17.00;84.41;92308.09;5036422;28;20030;-76
2022/06/29 05:17:47;;;;;;;14.80;3.72;;;;;;;17.07;84.15;92305.69;5030998;28;20042;-76
2022/06/29 05:20:13;;;;;;;13.63;3.67;;;;;;;17.13;83.79;92304.34;5017348;28;20029;-76
2022/06/29 05:22:39;;;;;;;12.77;3.60;;;;;;;17.20;83.69;92307.22;5029218;28;20220;-76
2022/06/29 05:25:05;;;;;;;14.25;3.50;;;;;;;17.27;83.17;92306.69;5033714;28;20064;-77
2022/06/29 05:27:32;;;;;;;11.68;3.95;;;;;;;17.36;82.76;92302.03;5047386;28;20410;-77
2022/06/29 05:29:57;;;;;;;7.07;3.45;;;;;;;17.45;82.32;92305.34;5035138;28;20075;-76
2022/06/29 05:32:24;;;;;;;12.25;3.60;;;;;;;17.55;82.18;92298.81;5034846;28;20045;-76
2022/06/29 05:34:50;;;;;;;13.63;3.47;;;;;;;17.68;82.30;92304.88;5046330;28;20033;-77
2022/06/29 05:37:16;;;;;;;16.10;3.45;;;;;;;17.79;81.39;92298.00;5037682;28;20034;-77
2022/06/29 05:39:42;;;;;;;17.35;3.78;;;;;;;17.92;81.38;92293.44;5033365;28;20045;-77
2022/06/29 05:42:08;;;;;;;16.02;4.40;;;;;;;18.03;78.07;92305.13;5037524;28;20407;-77
2022/06/29 05:44:34;;;;;;;12.43;3.78;;;;;;;18.26;85.45;92296.63;5029945;28;20352;-77
2022/06/29 05:47:00;;;;;;;12.85;4.10;;;;;;;18.28;85.89;92300.53;5042332;28;20545;-77
2022/06/29 05:49:26;;;;;;;12.15;3.67;;;;;;;18.88;84.14;92295.22;5043906;28;20033;-77
2022/06/29 05:51:52;;;;;;;17.15;4.10;;;;;;;19.57;80.62;92292.28;5018148;28;20124;-79
2022/06/29 05:54:17;;;;;;;11.60;3.50;;;;;;;20.10;78.17;92289.97;5029743;28;20037;-78
2022/06/29 05:56:43;;;;;;;17.30;3.97;;;;;;;20.74;76.73;92292.31;5058033;28;20053;-77
2022/06/29 05:59:08;;;;;;;11.40;3.30;;;;;;;21.37;73.80;92291.06;5036475;28;20033;-78
2022/06/29 06:01:34;;;;;;;8.77;3.17;;;;;;;21.96;70.73;92294.16;5047384;28;20036;-78
2022/06/29 06:04:00;;;;;;;9.30;3.15;;;;;;;22.54;66.88;92290.28;5046351;28;20067;-78
2022/06/29 06:06:32;;;;;;;16.02;3.10;;;;;;;23.06;63.32;92291.97;5047496;28;20033;-80
2022/06/29 06:08:58;;;;;;;12.57;2.75;;;;;;;23.53;60.12;92288.88;5058951;28;20537;-77
2022/06/29 06:11:24;;;;;;;16.70;3.35;;;;;;;23.91;58.07;92279.56;5051463;28;20064;-78
2022/06/29 06:13:49;;;;;;;16.52;3.13;;;;;;;24.29;55.86;92286.25;5040503;28;20199;-78
2022/06/29 06:16:15;;;;;;;11.98;3.50;;;;;;;24.65;54.91;92286.38;5046589;28;20045;-81
2022/06/29 06:18:41;;;;;;;12.43;3.28;;;;;;;24.93;53.22;92279.56;5050978;28;20048;-81
2022/06/29 06:21:06;;;;;;;13.93;3.50;;;;;;;25.24;54.08;92293.38;5057321;28;20100;-80
2022/06/29 06:23:33;;;;;;;12.20;3.30;;;;;;;25.22;56.37;92284.94;5069435;28;20083;-81
2022/06/29 06:25:59;;;;;;;11.98;3.45;;;;;;;24.76;58.47;92280.28;5056449;28;20041;-81
2022/06/29 06:28:24;;;;;;;12.25;4.00;;;;;;;24.23;59.89;92273.63;5057326;28;20018;-80
2022/06/29 06:30:50;;;;;;;11.60;3.35;;;;;;;24.08;61.10;92281.56;5058554;28;20507;-81
2022/06/29 06:33:16;;;;;;;13.80;3.70;;;;;;;24.22;61.08;92283.53;5067656;28;20057;-82
2022/06/29 06:36:00;;;;;;;14.55;3.78;;;;;;;24.34;59.97;92273.66;5058994;28;20032;-80
2022/06/29 06:38:26;;;;;;;13.25;3.92;;;;;;;23.24;62.27;92278.00;5057377;28;20037;-80
2022/06/29 06:43:36;;;;;;;12.90;4.35;;;;;;;22.46;66.73;92270.78;5053114;28;20045;-81
2022/06/29 06:46:01;;;;;;;15.48;3.90;;;;;;;22.45;67.32;92271.91;5063071;28;20063;-80
2022/06/29 06:48:27;;;;;;;11.02;3.75;;;;;;;22.33;67.68;92277.50;5069433;28;20047;-80
2022/06/29 06:50:53;;;;;;;12.32;4.05;;;;;;;22.06;68.39;92276.75;5051087;28;20036;-80
2022/06/29 06:53:18;;;;;;;15.75;3.65;;;;;;;21.62;71.18;92289.53;5051846;28;20127;-80
2022/06/29 06:55:44;;;;;;;13.07;4.00;;;;;;;21.59;72.37;92281.47;5056005;28;20061;-80
2022/06/29 06:58:10;;;;;;;15.48;4.00;;;;;;;21.77;71.05;92282.50;5056175;28;20037;-80
2022/06/29 07:00:35;;;;;;;9.65;3.65;;;;;;;21.96;70.46;92288.84;5053841;28;20132;-80
2022/06/29 07:03:01;;;;;;;11.32;3.75;;;;;;;21.67;70.38;92282.38;5074048;28;20393;-80
2022/06/29 07:05:26;;;;;;;17.00;3.72;;;;;;;21.42;72.01;92280.88;5058450;28;20040;-80
2022/06/29 07:07:52;;;;;;;17.17;3.97;;;;;;;21.51;72.18;92282.53;5064738;28;20391;-80
2022/06/29 07:10:17;;;;;;;11.23;3.35;;;;;;;21.74;71.44;92285.13;5054749;28;20048;-80
2022/06/29 07:12:43;;;;;;;14.10;3.80;;;;;;;21.77;70.35;92289.72;5050358;28;20041;-80
2022/06/29 07:15:09;;;;;;;14.75;3.70;;;;;;;21.57;71.52;92284.53;5073861;28;20043;-80
2022/06/29 07:17:34;;;;;;;14.05;4.15;;;;;;;21.58;72.76;92282.63;5057572;28;20569;-80
2022/06/29 07:20:00;;;;;;;10.02;3.60;;;;;;;21.28;72.57;92293.97;5058857;28;20071;-80
2022/06/29 07:22:26;;;;;;;11.07;3.42;;;;;;;21.20;74.20;92287.75;5052968;28;20037;-80
2022/06/29 07:24:51;;;;;;;9.88;3.72;;;;;;;21.25;74.58;92285.91;5058013;28;20048;-80
2022/06/29 07:27:17;;;;;;;14.02;4.00;;;;;;;21.19;74.49;92288.13;5056186;28;20053;-80
2022/06/29 07:29:42;;;;;;;12.05;4.25;;;;;;;21.20;73.84;92287.75;5056118;28;20037;-80
2022/06/29 07:32:08;;;;;;;11.93;4.05;;;;;;;21.24;72.87;92287.81;5069530;28;20047;-80
2022/06/29 07:34:34;;;;;;;11.27;3.50;;;;;;;21.25;71.80;92284.00;5065803;28;20336;-80
2022/06/29 07:37:00;;;;;;;11.15;3.03;;;;;;;21.49;72.44;92282.13;5076282;28;20036;-80
2022/06/29 07:39:26;;;;;;;13.18;3.97;;;;;;;21.59;71.97;92279.59;5071036;28;20036;-80
2022/06/29 07:41:51;;;;;;;12.07;4.93;;;;;;;21.56;73.07;92277.66;5035872;28;20045;-80
2022/06/29 07:44:17;;;;;;;11.18;3.70;;;;;;;21.71;73.02;92288.50;5052596;28;20051;-80
2022/06/29 07:46:42;;;;;;;10.38;3.70;;;;;;;21.82;71.96;92294.75;5057709;28;20041;-80
2022/06/29 07:49:08;;;;;;;14.13;4.47;;;;;;;21.71;71.42;92285.84;5048919;28;20056;-80
2022/06/29 07:51:35;;;;;;;9.73;3.70;;;;;;;21.70;72.80;92289.63;5057313;28;20040;-80
2022/06/29 07:54:00;;;;;;;9.93;3.97;;;;;;;21.52;70.49;92292.81;5065602;28;20512;-80
2022/06/29 07:56:26;;;;;;;15.75;4.15;;;;;;;21.65;68.70;92285.38;5056673;28;20057;-80
2022/06/29 07:58:52;;;;;;;13.88;4.35;;;;;;;22.00;65.75;92292.31;5049632;28;20036;-80
2022/06/29 08:01:17;;;;;;;20.60;7.82;;;;;;;22.12;67.66;92291.31;5035518;28;20029;-80
2022/06/29 08:03:43;;;;;;;32.85;12.13;;;;;;;22.16;69.74;92292.91;5054341;28;20048;-79
2022/06/29 08:06:10;;;;;;;46.22;15.65;;;;;;;22.08;71.50;92287.84;5068124;28;20040;-79
2022/06/29 08:08:35;;;;;;;38.05;16.83;;;;;;;22.05;68.52;92297.31;5068634;28;20544;-80
2022/06/29 08:11:02;;;;;;;33.10;15.38;;;;;;;22.20;69.91;92298.25;5060606;28;20033;-79
2022/06/29 08:13:27;;;;;;;38.92;15.57;;;;;;;22.23;68.71;92303.66;5052216;28;20072;-79
2022/06/29 08:15:53;;;;;;;33.78;13.98;;;;;;;22.19;68.94;92297.50;5052093;28;20071;-78
2022/06/29 08:18:19;;;;;;;33.47;13.20;;;;;;;22.28;67.95;92302.56;5054832;28;20056;-79
2022/06/29 08:20:44;;;;;;;29.30;11.45;;;;;;;22.17;68.83;92302.41;5053268;28;20032;-79
2022/06/29 08:23:10;;;;;;;24.58;10.68;;;;;;;22.24;68.26;92301.75;5048383;28;20492;-81
2022/06/29 08:25:36;;;;;;;24.13;9.75;;;;;;;22.31;67.95;92309.84;5046481;28;20032;-80
2022/06/29 08:28:02;;;;;;;26.10;9.30;;;;;;;22.39;66.87;92302.69;5052089;28;20053;-80
2022/06/29 08:30:28;;;;;;;24.00;7.70;;;;;;;22.42;66.45;92302.72;5054397;28;20049;-79
2022/06/29 08:32:54;;;;;;;27.70;8.23;;;;;;;22.53;65.90;92296.75;5055560;28;20032;-81
2022/06/29 08:35:19;;;;;;;17.95;6.25;;;;;;;22.54;64.44;92307.06;5055984;28;20223;-79
2022/06/29 08:37:46;;;;;;;19.77;6.22;;;;;;;22.58;63.26;92299.84;5043301;28;20448;-79
2022/06/29 08:40:15;;;;;;;22.67;6.82;;;;;;;22.48;64.41;92300.53;5036900;28;20030;-79
2022/06/29 08:42:41;;;;;;;21.40;7.00;;;;;;;22.57;64.41;92300.22;5046888;28;20478;-79
2022/06/29 08:45:09;;;;;;;23.73;6.05;;;;;;;22.68;61.49;92301.09;5051077;28;20039;-80
2022/06/29 08:47:36;;;;;;;15.05;4.95;;;;;;;22.83;62.37;92302.00;5038525;28;20025;-79
2022/06/29 08:50:11;;;;;;;14.43;4.82;;;;;;;22.86;63.49;92296.72;5038166;28;20024;-81
2022/06/29 08:52:38;;;;;;;16.15;4.60;;;;;;;22.94;61.48;92297.53;5034622;28;20506;-80
2022/06/29 08:55:06;;;;;;;12.23;4.20;;;;;;;22.70;60.59;92298.06;5065814;28;20086;-80
2022/06/29 08:57:40;;;;;;;16.75;4.57;;;;;;;22.70;62.20;92300.72;5076881;28;20035;-80
2022/06/29 09:00:07;;;;;;;13.68;4.32;;;;;;;22.74;63.25;92293.53;5078665;28;20117;-80
2022/06/29 09:02:36;;;;;;;12.90;4.53;;;;;;;22.61;61.58;92291.13;5073798;28;20052;-80
2022/06/29 09:05:03;;;;;;;10.05;3.75;;;;;;;22.74;61.66;92293.53;5050986;28;20052;-79
2022/06/29 09:07:28;;;;;;;11.00;4.32;;;;;;;23.13;62.63;92290.50;5048559;28;20030;-81
2022/06/29 09:10:07;;;;;;;15.25;4.32;;;;;;;23.02;63.25;92293.81;5051066;28;20325;-79
2022/06/29 09:12:33;;;;;;;13.60;4.82;;;;;;;23.05;61.03;92293.09;5054579;28;20052;-80
2022/06/29 09:14:59;;;;;;;15.90;4.40;;;;;;;23.14;61.88;92292.03;5054348;28;20072;-79
2022/06/29 09:17:25;;;;;;;15.77;4.22;;;;;;;23.21;60.92;92289.41;5055255;28;20066;-79
2022/06/29 09:19:56;;;;;;;10.80;3.95;;;;;;;22.95;60.81;92293.75;5053527;28;20045;-80
2022/06/29 09:22:22;;;;;;;15.57;4.28;;;;;;;23.17;62.25;92300.06;5088205;28;20040;-80
2022/06/29 09:24:49;;;;;;;13.20;4.43;;;;;;;23.14;60.46;92300.03;5071371;28;20029;-80
2022/06/29 09:27:14;;;;;;;9.90;3.85;;;;;;;23.17;62.09;92307.28;5052757;28;20037;-80
2022/06/29 09:29:42;;;;;;;14.20;4.22;;;;;;;23.32;62.10;92303.59;5034800;28;20040;-80
2022/06/29 09:32:10;;;;;;;12.57;4.15;;;;;;;23.23;59.95;92301.25;5035552;28;20502;-80
2022/06/29 09:34:42;;;;;;;18.13;4.80;;;;;;;23.30;59.82;92297.84;5035015;28;20037;-80
2022/06/29 09:37:12;;;;;;;12.52;3.83;;;;;;;23.77;61.73;92306.22;5054083;28;20041;-81
2022/06/29 09:39:39;;;;;;;17.30;4.25;;;;;;;23.64;60.13;92303.84;5054951;28;20048;-80
2022/06/29 09:42:06;;;;;;;16.00;4.85;;;;;;;23.47;60.05;92307.16;5053344;28;20116;-80
2022/06/29 09:44:33;;;;;;;12.95;4.32;;;;;;;23.42;61.86;92310.19;5053088;28;20071;-80
2022/06/29 09:47:00;;;;;;;13.95;4.63;;;;;;;23.66;60.09;92308.81;5054284;28;20041;-80
2022/06/29 09:49:28;;;;;;;16.73;4.82;;;;;;;23.77;58.63;92309.66;5035836;28;20467;-80
2022/06/29 09:51:58;;;;;;;18.20;4.43;;;;;;;23.94;59.37;92308.25;5053360;28;20123;-81
2022/06/29 09:54:45;;;;;;;17.20;4.60;;;;;;;24.03;58.14;92313.25;5051292;28;20048;-80
2022/06/29 09:57:12;;;;;;;12.93;3.78;;;;;;;24.30;57.42;92303.84;5046605;28;20049;-81
2022/06/29 10:02:45;;;;;;;17.38;4.72;;;;;;;24.69;58.16;92299.78;5067950;28;20036;-81
2022/06/29 10:05:13;;;;;;;18.98;4.03;;;;;;;24.92;56.70;92307.47;5036767;28;20070;-80
2022/06/29 10:07:42;;;;;;;15.75;4.43;;;;;;;24.70;56.28;92303.97;5066064;28;20033;-80
2022/06/29 10:10:11;;;;;;;12.50;3.90;;;;;;;24.78;54.68;92304.78;5038223;28;20021;-80
2022/06/29 10:15:30;;;;;;;17.92;4.55;;;;;;;24.54;54.95;92298.19;5062934;28;20030;-81
2022/06/29 10:18:04;;;;;;;10.70;4.00;;;;;;;24.63;54.72;92306.63;5063173;28;20036;-80
2022/06/29 10:20:46;;;;;;;14.05;3.60;;;;;;;24.46;56.32;92300.06;5066995;28;20057;-80
2022/06/29 10:23:50;;;;;;;17.70;7.93;;;;;;;24.54;57.00;92298.19;5064388;28;20039;-79
2022/06/29 10:26:37;;;;;;;16.73;3.50;;;;;;;24.44;55.64;92297.75;5060462;28;20036;-80
2022/06/29 10:29:06;;;;;;;16.02;4.10;;;;;;;24.39;57.06;92302.72;5070673;28;20029;-79
2022/06/29 10:31:50;;;;;;;14.52;3.80;;;;;;;24.73;55.55;92293.28;5069621;28;20080;-81
2022/06/29 10:34:30;;;;;;;11.15;3.42;;;;;;;24.30;54.19;92293.13;5076853;28;20051;-81
2022/06/29 10:37:05;;;;;;;11.68;3.45;;;;;;;24.46;54.23;92292.81;5076529;28;20514;-81
2022/06/29 10:39:43;;;;;;;15.32;3.58;;;;;;;24.66;54.34;92285.25;5059439;28;20041;-80
2022/06/29 10:45:47;;;;;;;11.48;3.50;;;;;;;24.66;55.51;92285.25;5070666;28;20094;-80
2022/06/29 10:48:14;;;;;;;16.45;3.83;;;;;;;25.03;55.64;92278.78;5061637;28;20511;-80
2022/06/29 10:50:41;;;;;;;16.13;5.07;;;;;;;24.96;53.81;92289.50;5063941;28;20045;-81
2022/06/29 10:53:13;;;;;;;13.82;3.90;;;;;;;24.72;55.25;92275.72;5061249;28;20028;-80
2022/06/29 10:55:41;;;;;;;17.60;4.47;;;;;;;24.85;55.76;92280.69;5043686;28;20052;-80
2022/06/29 10:58:07;;;;;;;14.10;3.97;;;;;;;24.86;56.22;92279.56;5053476;28;20033;-81
2022/06/29 11:00:38;;;;;;;11.20;3.17;;;;;;;25.12;53.89;92287.22;5037014;28;20025;-80
2022/06/29 11:03:19;;;;;;;13.38;3.70;;;;;;;25.19;54.14;92283.03;5059167;28;20029;-80
2022/06/29 11:14:03;;;;;;;12.43;3.63;;;;;;;25.06;54.98;92275.38;5058381;28;20060;-79
2022/06/29 11:16:33;;;;;;;9.90;3.20;;;;;;;25.23;55.75;92273.88;5059316;28;20028;-80
2022/06/29 11:18:59;;;;;;;13.98;3.85;;;;;;;25.19;54.49;92275.00;5049107;28;20033;-80
2022/06/29 11:21:30;;;;;;;10.43;3.20;;;;;;;25.20;54.17;92280.00;5023698;28;20033;-79
2022/06/29 11:24:06;;;;;;;18.02;3.78;;;;;;;25.26;54.86;92265.06;5064308;28;20083;-80
2022/06/29 11:26:33;;;;;;;12.45;3.85;;;;;;;25.53;55.34;92267.34;5073557;28;20571;-80
2022/06/29 11:29:04;;;;;;;11.98;3.40;;;;;;;25.67;53.88;92271.91;5060308;28;20101;-80
2022/06/29 11:31:32;;;;;;;15.32;3.25;;;;;;;25.69;52.96;92269.59;5050634;28;20576;-80
2022/06/29 11:33:59;;;;;;;11.52;3.35;;;;;;;25.86;52.25;92268.81;5064315;28;20037;-79
2022/06/29 11:36:30;;;;;;;13.38;4.25;;;;;;;25.73;53.84;92270.38;5072978;28;20028;-79
2022/06/29 11:39:03;;;;;;;20.42;4.28;;;;;;;25.56;53.11;92266.59;5081817;28;20040;-79
2022/06/29 11:44:31;;;;;;;14.43;3.40;;;;;;;26.08;53.60;92272.22;5080385;28;20044;-79
2022/06/29 11:46:58;;;;;;;12.38;3.53;;;;;;;25.72;53.65;92271.53;5084026;28;20086;-79
2022/06/29 11:49:42;;;;;;;12.45;3.60;;;;;;;25.54;54.98;92269.63;5083115;28;20095;-79
2022/06/29 11:52:12;;;;;;;14.38;3.70;;;;;;;25.68;54.26;92260.03;5066114;28;20478;-78
2022/06/29 11:54:46;;;;;;;13.05;3.65;;;;;;;25.71;54.69;92262.72;5083983;28;20047;-78
2022/06/29 11:57:15;;;;;;;11.75;3.40;;;;;;;25.91;55.32;92259.63;5082391;28;20044;-79
2022/06/29 11:59:44;;;;;;;12.35;3.65;;;;;;;26.02;53.84;92259.59;5084287;28;20051;-79